createdAt,value
2022-08-20T00:02:43.168Z,21.45
2022-08-20T00:05:55.972Z,21.42
2022-08-20T00:08:59.185Z,21.49
2022-08-20T00:12:01.762Z,21.35
2022-08-20T00:15:06.916Z,21.18
2022-08-20T00:18:09.903Z,21.25
2022-08-20T00:21:19.072Z,21.31
2022-08-20T00:24:21.872Z,21.20
2022-08-20T00:27:24.348Z,21.28
2022-08-20T00:30:27.463Z,21.27
2022-08-20T00:33:29.943Z,21.11
2022-08-20T00:36:32.941Z,21.17
2022-08-20T00:39:36.194Z,21.31
2022-08-20T00:42:49.992Z,21.15
2022-08-20T00:45:55.701Z,21.21
2022-08-20T00:48:58.755Z,21.27
2022-08-20T00:52:03.559Z,21.34
2022-08-20T00:55:07.007Z,21.23
2022-08-20T00:58:09.961Z,21.23
2022-08-20T01:01:13.419Z,21.30
2022-08-20T01:04:16.016Z,21.32
2022-08-20T01:07:20.877Z,21.37
2022-08-20T01:10:28.522Z,21.38
2022-08-20T01:13:31.924Z,21.48
2022-08-20T01:16:35.385Z,21.51
2022-08-20T01:19:48.106Z,21.65
2022-08-20T01:23:21.720Z,21.63
2022-08-20T01:26:32.492Z,21.65
2022-08-20T01:29:39.712Z,21.61
2022-08-20T01:32:42.083Z,21.62
2022-08-20T01:35:45.104Z,21.78
2022-08-20T01:38:53.183Z,21.76
2022-08-20T01:42:03.178Z,21.82
2022-08-20T01:45:09.408Z,21.76
2022-08-20T01:48:14.302Z,21.89
2022-08-20T01:51:23.508Z,21.85
2022-08-20T01:54:27.259Z,21.75
2022-08-20T01:57:29.808Z,21.66
2022-08-20T02:00:34.941Z,21.90
2022-08-20T02:03:40.742Z,21.85
2022-08-20T02:06:57.749Z,21.86
2022-08-20T02:10:01.158Z,21.97
2022-08-20T02:13:05.815Z,21.88
2022-08-20T02:16:08.820Z,21.85
2022-08-20T02:19:16.757Z,21.79
2022-08-20T02:22:29.561Z,21.81
2022-08-20T02:25:35.705Z,21.71
2022-08-20T02:28:38.172Z,21.71
2022-08-20T02:32:23.436Z,21.71
2022-08-20T02:35:10.499Z,21.74
2022-08-20T02:38:15.820Z,21.66
2022-08-20T02:41:18.551Z,21.74
2022-08-20T02:44:21.567Z,21.69
2022-08-20T02:47:25.467Z,21.67
2022-08-20T02:50:28.594Z,21.61
2022-08-20T02:53:34.404Z,21.71
2022-08-20T02:56:36.802Z,21.54
2022-08-20T02:59:40.336Z,21.55
2022-08-20T03:02:42.838Z,21.52
2022-08-20T03:05:45.360Z,21.39
2022-08-20T03:08:47.948Z,21.51
2022-08-20T03:11:50.422Z,21.46
2022-08-20T03:14:52.793Z,21.49
2022-08-20T03:17:55.389Z,21.38
2022-08-20T03:20:57.946Z,21.24
2022-08-20T03:24:00.321Z,21.34
2022-08-20T03:27:02.769Z,21.08
2022-08-20T03:30:09.817Z,21.23
2022-08-20T03:33:12.390Z,21.18
2022-08-20T03:36:14.873Z,21.21
2022-08-20T03:39:23.252Z,21.27
2022-08-20T03:42:26.855Z,21.18
2022-08-20T03:45:30.057Z,21.07
2022-08-20T03:48:39.134Z,21.20
2022-08-20T03:51:57.950Z,21.14
2022-08-20T03:55:00.905Z,21.08
2022-08-20T03:58:06.421Z,21.18
2022-08-20T04:01:09.049Z,21.27
2022-08-20T04:04:31.312Z,21.41
2022-08-20T04:07:33.817Z,21.44
2022-08-20T04:10:37.401Z,21.52
2022-08-20T04:13:42.626Z,21.66
2022-08-20T04:16:46.464Z,21.75
2022-08-20T04:19:51.472Z,21.83
2022-08-20T04:22:56.357Z,21.83
2022-08-20T04:26:02.012Z,21.85
2022-08-20T04:29:05.136Z,21.79
2022-08-20T04:32:08.234Z,21.82
2022-08-20T04:35:18.267Z,21.67
2022-08-20T04:38:22.815Z,21.59
2022-08-20T04:41:25.195Z,21.65
2022-08-20T04:44:28.159Z,21.79
2022-08-20T04:47:34.747Z,21.76
2022-08-20T04:50:39.312Z,21.95
2022-08-20T04:53:42.935Z,21.86
2022-08-20T04:56:45.586Z,21.89
2022-08-20T04:59:47.979Z,21.67
2022-08-20T05:02:53.363Z,21.78
2022-08-20T05:05:56.993Z,21.86
2022-08-20T05:09:00.693Z,21.54
2022-08-20T05:12:03.323Z,21.66
2022-08-20T05:15:06.135Z,21.74
2022-08-20T05:18:09.512Z,21.88
2022-08-20T05:21:12.149Z,21.92
2022-08-20T05:24:18.084Z,21.86
2022-08-20T05:27:24.917Z,21.61
2022-08-20T05:30:34.167Z,21.32
2022-08-20T05:33:38.853Z,21.35
2022-08-20T05:36:45.492Z,21.49
2022-08-20T05:39:49.521Z,21.62
2022-08-20T05:42:53.870Z,21.66
2022-08-20T05:45:58.521Z,21.69
2022-08-20T05:49:07.932Z,21.56
2022-08-20T05:52:10.426Z,21.46
2022-08-20T05:55:13.448Z,21.51
2022-08-20T05:58:25.015Z,21.67
2022-08-20T06:01:27.509Z,21.67
2022-08-20T06:04:32.072Z,21.62
2022-08-20T06:07:34.643Z,21.56
2022-08-20T06:10:38.657Z,21.61
2022-08-20T06:13:44.978Z,21.66
2022-08-20T06:16:57.733Z,21.61
2022-08-20T06:20:05.031Z,21.56
2022-08-20T06:23:08.748Z,21.52
2022-08-20T06:26:11.481Z,21.61
2022-08-20T06:29:13.878Z,21.66
2022-08-20T06:32:16.879Z,21.62
2022-08-20T06:35:20.111Z,21.71
2022-08-20T06:38:23.207Z,21.88
2022-08-20T06:41:35.821Z,21.85
2022-08-20T06:44:38.812Z,21.97
2022-08-20T06:47:43.903Z,21.97
2022-08-20T06:50:47.959Z,22.10
2022-08-20T06:53:51.127Z,22.09
2022-08-20T06:56:54.700Z,22.09
2022-08-20T06:59:57.111Z,22.06
2022-08-20T07:03:03.478Z,22.03
2022-08-20T07:06:06.819Z,21.95
2022-08-20T07:09:09.329Z,21.92
2022-08-20T07:12:11.731Z,21.89
2022-08-20T07:15:15.069Z,21.82
2022-08-20T07:18:17.820Z,21.81
2022-08-20T07:21:30.941Z,21.59
2022-08-20T07:24:35.717Z,21.55
2022-08-20T07:27:40.752Z,21.35
2022-08-20T07:31:12.359Z,21.41
2022-08-20T07:34:16.284Z,21.46
2022-08-20T07:37:18.946Z,21.46
2022-08-20T07:40:28.041Z,21.55
2022-08-20T07:43:32.676Z,21.72
2022-08-20T07:46:35.279Z,21.92
2022-08-20T07:49:38.641Z,22.13
2022-08-20T07:52:41.062Z,22.41
2022-08-20T07:55:51.134Z,22.90
2022-08-20T07:59:02.323Z,23.70
2022-08-20T08:02:05.773Z,24.68
2022-08-20T08:05:08.574Z,25.75
2022-08-20T08:08:14.412Z,25.67
2022-08-20T08:11:17.178Z,25.46
2022-08-20T08:14:24.836Z,25.46
2022-08-20T08:17:28.569Z,25.12
2022-08-20T08:20:31.247Z,25.03
2022-08-20T08:23:34.963Z,24.86
2022-08-20T08:26:37.411Z,24.67
2022-08-20T08:29:40.085Z,24.17
2022-08-20T08:33:02.796Z,23.88
2022-08-20T08:36:09.837Z,23.88
2022-08-20T08:39:12.258Z,23.73
2022-08-20T08:42:27.177Z,23.50
2022-08-20T08:45:45.540Z,23.57
2022-08-20T08:48:50.785Z,23.20
2022-08-20T08:52:08.793Z,23.18
2022-08-20T08:55:19.827Z,23.20
2022-08-20T08:58:22.538Z,23.22
2022-08-20T09:01:56.244Z,23.18
2022-08-20T09:04:51.507Z,23.19
2022-08-20T09:07:54.348Z,23.06
2022-08-20T09:11:05.332Z,23.22
2022-08-20T09:14:07.694Z,23.26
2022-08-20T09:17:10.199Z,23.49
2022-08-20T09:20:12.796Z,23.46
2022-08-20T09:23:15.244Z,23.43
2022-08-20T09:26:17.977Z,23.60
2022-08-20T09:29:20.377Z,23.70
2022-08-20T09:32:24.850Z,23.77
2022-08-20T09:35:29.217Z,24.04
2022-08-20T09:38:32.839Z,24.18
2022-08-20T09:41:35.287Z,24.27
2022-08-20T09:44:38.243Z,24.44
2022-08-20T09:47:54.792Z,24.48
2022-08-20T09:50:59.436Z,24.24
2022-08-20T09:54:02.493Z,24.47
2022-08-20T09:57:07.384Z,24.22
2022-08-20T10:00:12.504Z,23.96
2022-08-20T10:03:15.401Z,24.07
2022-08-20T10:06:22.466Z,24.10
2022-08-20T10:09:24.847Z,24.29
2022-08-20T10:12:27.269Z,24.27
2022-08-20T10:15:31.139Z,24.17
2022-08-20T10:18:35.155Z,24.29
2022-08-20T10:21:39.057Z,24.44
2022-08-20T10:24:41.849Z,24.47
2022-08-20T10:27:44.783Z,24.54
2022-08-20T10:30:47.333Z,24.54
2022-08-20T10:33:49.751Z,24.65
2022-08-20T10:36:52.410Z,24.47
2022-08-20T10:39:55.339Z,24.61
2022-08-20T10:42:57.826Z,24.82
2022-08-20T10:46:00.631Z,24.79
2022-08-20T10:49:03.132Z,24.83
2022-08-20T10:52:06.026Z,24.90
2022-08-20T10:55:09.932Z,25.10
2022-08-20T10:58:13.298Z,24.95
2022-08-20T11:01:31.520Z,25.12
2022-08-20T11:04:36.158Z,25.06
2022-08-20T11:07:59.842Z,24.88
2022-08-20T11:11:02.438Z,24.89
2022-08-20T11:14:04.827Z,24.99
2022-08-20T11:17:07.767Z,24.93
2022-08-20T11:20:12.759Z,25.05
2022-08-20T11:23:18.202Z,25.30
2022-08-20T11:26:24.432Z,25.54
2022-08-20T11:29:29.968Z,25.63
2022-08-20T11:32:34.565Z,25.80
2022-08-20T11:35:49.585Z,25.80
2022-08-20T11:38:53.123Z,26.15
2022-08-20T11:41:55.859Z,26.28
2022-08-20T11:44:58.279Z,26.57
2022-08-20T11:48:00.636Z,26.80
2022-08-20T11:51:03.097Z,26.94
2022-08-20T11:54:05.846Z,27.23
2022-08-20T11:57:09.523Z,27.23
2022-08-20T12:00:20.364Z,27.52
2022-08-20T12:03:34.979Z,27.69
2022-08-20T12:06:37.426Z,27.82
2022-08-20T12:09:43.119Z,27.84
2022-08-20T12:12:54.612Z,27.52
2022-08-20T12:15:57.271Z,27.82
2022-08-20T12:18:59.665Z,28.06
2022-08-20T12:22:23.782Z,28.68
2022-08-20T12:25:25.233Z,30.24
2022-08-20T12:28:27.621Z,30.82
2022-08-20T12:31:30.120Z,30.89
2022-08-20T12:34:36.854Z,31.09
2022-08-20T12:37:39.991Z,31.88
2022-08-20T12:40:42.771Z,32.92
2022-08-20T12:43:45.180Z,33.88
2022-08-20T12:46:47.568Z,33.10
2022-08-20T12:50:01.125Z,32.52
2022-08-20T12:53:04.424Z,32.66
2022-08-20T12:56:06.951Z,32.69
2022-08-20T12:59:09.359Z,32.35
2022-08-20T13:02:15.741Z,32.03
2022-08-20T13:05:22.642Z,32.78
2022-08-20T13:08:25.012Z,32.10
2022-08-20T13:11:27.468Z,32.54
2022-08-20T13:14:30.309Z,32.42
2022-08-20T13:17:38.794Z,32.51
2022-08-20T13:20:42.012Z,32.38
2022-08-20T13:23:44.616Z,32.49
2022-08-20T13:26:47.380Z,32.90
2022-08-20T13:29:54.054Z,32.32
2022-08-20T13:33:00.387Z,31.87
2022-08-20T13:36:02.983Z,32.24
2022-08-20T13:39:06.902Z,32.62
2022-08-20T13:42:10.268Z,33.61
2022-08-20T13:45:13.320Z,33.68
2022-08-20T13:48:15.729Z,33.34
2022-08-20T13:51:19.090Z,33.44
2022-08-20T13:54:21.685Z,33.39
2022-08-20T13:57:25.511Z,34.25
2022-08-20T14:00:31.944Z,34.18
2022-08-20T14:03:35.244Z,33.44
2022-08-20T14:06:38.074Z,33.46
2022-08-20T14:09:42.118Z,33.94
2022-08-20T14:12:44.628Z,33.98
2022-08-20T14:15:47.289Z,33.53
2022-08-20T14:18:52.741Z,34.06
2022-08-20T14:21:55.355Z,34.44
2022-08-20T14:24:59.631Z,33.65
2022-08-20T14:28:19.551Z,33.81
2022-08-20T14:31:28.158Z,33.09
2022-08-20T14:34:30.871Z,31.81
2022-08-20T14:37:37.966Z,31.56
2022-08-20T14:40:40.384Z,31.63
2022-08-20T14:43:42.765Z,31.50
2022-08-20T14:46:45.158Z,31.80
2022-08-20T14:49:49.336Z,31.67
2022-08-20T14:52:52.697Z,31.27
2022-08-20T14:55:55.101Z,30.61
2022-08-20T14:58:57.486Z,29.90
2022-08-20T15:02:00.243Z,29.26
2022-08-20T15:05:04.471Z,29.15
2022-08-20T15:08:10.637Z,28.52
2022-08-20T15:11:13.832Z,28.13
2022-08-20T15:14:18.450Z,28.19
2022-08-20T15:17:27.984Z,28.03
2022-08-20T15:20:32.470Z,27.45
2022-08-20T15:23:34.868Z,27.23
2022-08-20T15:26:37.303Z,27.31
2022-08-20T15:29:40.131Z,27.14
2022-08-20T15:32:42.652Z,27.14
2022-08-20T15:35:45.127Z,27.21
2022-08-20T15:38:47.621Z,27.17
2022-08-20T15:41:49.981Z,27.35
2022-08-20T15:44:52.702Z,27.54
2022-08-20T15:48:13.078Z,27.40
2022-08-20T15:51:24.617Z,27.81
2022-08-20T15:54:28.340Z,27.69
2022-08-20T15:57:53.102Z,27.69
2022-08-20T16:01:24.789Z,27.73
2022-08-20T16:04:52.425Z,27.57
2022-08-20T16:08:25.288Z,27.41
2022-08-20T16:12:05.126Z,27.14
2022-08-20T16:15:18.893Z,26.90
2022-08-20T16:18:28.180Z,27.14
2022-08-20T16:21:34.336Z,27.07
2022-08-20T16:24:36.821Z,26.83
2022-08-20T16:28:00.138Z,26.97
2022-08-20T16:31:11.983Z,26.86
2022-08-20T16:34:32.887Z,26.80
2022-08-20T16:37:49.023Z,26.80
2022-08-20T16:41:20.181Z,26.76
2022-08-20T16:44:39.914Z,26.70
2022-08-20T16:47:42.442Z,26.48
2022-08-20T16:50:57.870Z,26.24
2022-08-20T16:54:00.334Z,26.09
2022-08-20T16:57:06.115Z,26.06
2022-08-20T17:00:29.412Z,25.84
2022-08-20T17:03:38.689Z,25.74
2022-08-20T17:06:48.367Z,25.67
2022-08-20T17:09:53.250Z,25.44
2022-08-20T17:13:00.013Z,25.40
2022-08-20T17:16:05.334Z,25.23
2022-08-20T17:19:27.233Z,25.15
2022-08-20T17:22:39.581Z,25.06
2022-08-20T17:25:42.266Z,24.95
2022-08-20T17:28:53.255Z,24.83
2022-08-20T17:32:15.269Z,24.76
2022-08-20T17:35:48.783Z,24.65
2022-08-20T17:38:54.252Z,24.54
2022-08-20T17:42:08.190Z,24.27
2022-08-20T17:45:22.767Z,24.06
2022-08-20T17:48:32.657Z,23.98
2022-08-20T17:51:38.649Z,24.01
2022-08-20T17:54:45.216Z,23.86
2022-08-20T17:57:53.242Z,23.60
2022-08-20T18:00:55.649Z,22.99
2022-08-20T18:03:58.214Z,23.06
2022-08-20T18:07:06.722Z,22.88
2022-08-20T18:10:23.652Z,23.08
2022-08-20T18:13:52.029Z,23.09
2022-08-20T18:17:31.761Z,23.08
2022-08-20T18:21:31.566Z,23.12
2022-08-20T18:24:42.415Z,22.92
2022-08-20T18:27:51.369Z,22.87
2022-08-20T18:31:00.382Z,22.81
2022-08-20T18:34:28.654Z,22.85
2022-08-20T18:37:33.147Z,22.90
2022-08-20T18:40:37.760Z,22.83
2022-08-20T18:43:41.124Z,22.78
2022-08-20T18:46:55.885Z,22.51
2022-08-20T18:50:18.472Z,22.43
2022-08-20T18:53:34.265Z,22.48
2022-08-20T18:56:42.332Z,22.44
2022-08-20T18:59:56.888Z,22.58
2022-08-20T19:03:08.513Z,22.57
2022-08-20T19:06:22.912Z,22.36
2022-08-20T19:09:37.059Z,22.23
2022-08-20T19:13:05.552Z,22.17
2022-08-20T19:16:18.713Z,22.30
2022-08-20T19:19:23.667Z,22.29
2022-08-20T19:22:27.339Z,22.17
2022-08-20T19:25:37.147Z,22.13
2022-08-20T19:28:50.411Z,22.18
2022-08-20T19:31:58.864Z,22.23
2022-08-20T19:35:06.236Z,22.36
2022-08-20T19:38:16.321Z,22.32
2022-08-20T19:41:48.755Z,22.32
2022-08-20T19:45:01.428Z,22.37
2022-08-20T19:48:14.296Z,22.39
2022-08-20T19:51:45.883Z,22.57
2022-08-20T19:54:53.969Z,22.50
2022-08-20T19:58:03.422Z,22.37
2022-08-20T20:01:11.732Z,22.17
2022-08-20T20:04:17.637Z,22.34
2022-08-20T20:07:24.761Z,22.36
2022-08-20T20:10:35.762Z,22.37
2022-08-20T20:13:38.574Z,22.33
2022-08-20T20:16:42.618Z,22.27
2022-08-20T20:19:48.855Z,22.27
2022-08-20T20:23:06.891Z,22.33
2022-08-20T20:26:16.863Z,22.33
2022-08-20T20:29:37.993Z,22.32
2022-08-20T20:32:44.330Z,22.34
2022-08-20T20:35:46.965Z,22.30
2022-08-20T20:38:58.517Z,22.27
2022-08-20T20:42:02.958Z,22.24
2022-08-20T20:45:32.903Z,22.16
2022-08-20T20:48:50.422Z,22.20
2022-08-20T20:52:15.206Z,22.17
2022-08-20T20:55:17.759Z,22.14
2022-08-20T20:58:20.135Z,22.03
2022-08-20T21:01:38.657Z,21.97
2022-08-20T21:04:49.564Z,21.97
2022-08-20T21:08:01.343Z,22.12
2022-08-20T21:11:03.798Z,22.17
2022-08-20T21:14:06.266Z,22.20
2022-08-20T21:17:11.574Z,22.14
2022-08-20T21:20:14.033Z,22.07
2022-08-20T21:23:16.699Z,22.09
2022-08-20T21:26:19.161Z,22.10
2022-08-20T21:29:28.103Z,21.82
2022-08-20T21:32:34.288Z,21.76
2022-08-20T21:35:36.686Z,21.81
2022-08-20T21:38:39.185Z,21.83
2022-08-20T21:41:42.828Z,21.83
2022-08-20T21:44:49.331Z,21.71
2022-08-20T21:47:52.236Z,21.85
2022-08-20T21:50:54.652Z,21.86
2022-08-20T21:53:57.048Z,21.85
2022-08-20T21:57:06.292Z,21.86
2022-08-20T22:00:46.639Z,21.89
2022-08-20T22:03:49.546Z,21.82
2022-08-20T22:06:54.450Z,21.89
2022-08-20T22:09:56.857Z,21.72
2022-08-20T22:12:59.308Z,21.69
2022-08-20T22:16:08.991Z,21.63
2022-08-20T22:19:15.940Z,21.69
2022-08-20T22:22:20.588Z,21.65
2022-08-20T22:25:23.469Z,21.61
2022-08-20T22:28:26.651Z,21.55
2022-08-20T22:31:31.744Z,21.44
2022-08-20T22:34:41.747Z,21.52
2022-08-20T22:37:44.221Z,21.41
2022-08-20T22:40:46.679Z,21.31
2022-08-20T22:43:55.829Z,21.31
2022-08-20T22:47:02.872Z,21.24
2022-08-20T22:50:07.881Z,21.18
2022-08-20T22:53:11.550Z,21.30
2022-08-20T22:56:19.948Z,21.28
2022-08-20T22:59:25.020Z,21.30
2022-08-20T23:02:28.034Z,21.32
2022-08-20T23:05:33.089Z,21.28
2022-08-20T23:08:35.514Z,21.28
2022-08-20T23:11:38.028Z,21.31
2022-08-20T23:14:40.452Z,21.25
2022-08-20T23:17:43.163Z,21.37
2022-08-20T23:20:51.680Z,21.39
2022-08-20T23:23:54.185Z,21.38
2022-08-20T23:26:57.271Z,21.37
2022-08-20T23:29:59.657Z,21.32
2022-08-20T23:33:03.570Z,21.25
2022-08-20T23:36:09.169Z,21.30
2022-08-20T23:39:11.796Z,21.34
2022-08-20T23:42:14.556Z,21.31
2022-08-20T23:45:17.330Z,21.25
2022-08-20T23:48:19.758Z,21.24
2022-08-20T23:51:22.151Z,21.18
2022-08-20T23:54:24.544Z,21.17
2022-08-20T23:57:26.932Z,21.18
